Time;durP1;ratioP1;P1;durP2;ratioP2;P2;SDS_P1;SDS_P2;PMS_P1;PMS_P2;Temp;Humidity;BMP_temperature;BMP_pressure;BME280_temperature;BME280_humidity;BME280_pressure;Samples;Min_cycle;Max_cycle;Signal;HPM_P1;HPM_P2
2022/10/08 00:00:52;;;;;;;60.13;40.77;;;;;;;;;;5057589;28;20222;-62
2022/10/08 00:03:20;;;;;;;55.73;39.97;;;;;;;;;;5063632;28;20225;-62
2022/10/08 00:05:58;;;;;;;57.13;39.60;;;;;;;;;;5052791;28;20304;-62
2022/10/08 00:08:26;;;;;;;55.27;38.50;;;;;;;;;;5050589;28;20699;-62
2022/10/08 00:10:55;;;;;;;60.57;39.73;;;;;;;;;;5051229;28;20624;-62
2022/10/08 00:13:23;;;;;;;58.63;39.43;;;;;;;;;;5062565;28;20726;-61
2022/10/08 00:15:51;;;;;;;55.13;39.80;;;;;;;;;;5048161;28;20701;-62
2022/10/08 00:18:20;;;;;;;59.27;38.87;;;;;;;;;;5055409;28;20213;-62
2022/10/08 00:20:47;;;;;;;57.40;39.33;;;;;;;;;;5057771;28;20201;-63
2022/10/08 00:23:15;;;;;;;60.07;39.60;;;;;;;;;;5057589;28;20253;-61
2022/10/08 00:25:43;;;;;;;54.63;38.37;;;;;;;;;;5055562;28;20252;-62
2022/10/08 00:28:14;;;;;;;57.90;38.67;;;;;;;;;;5075178;28;20317;-63
2022/10/08 00:30:42;;;;;;;53.40;37.73;;;;;;;;;;5049704;28;20209;-61
2022/10/08 00:33:10;;;;;;;55.23;37.87;;;;;;;;;;5053069;28;20212;-61
2022/10/08 00:35:38;;;;;;;51.97;37.93;;;;;;;;;;5048472;28;20233;-62
2022/10/08 00:38:06;;;;;;;51.70;37.17;;;;;;;;;;5058107;28;20200;-62
2022/10/08 00:40:44;;;;;;;53.57;36.53;;;;;;;;;;5053370;28;20300;-61
2022/10/08 00:43:16;;;;;;;50.83;36.35;;;;;;;;;;5058893;28;20292;-61
2022/10/08 00:45:45;;;;;;;50.00;35.97;;;;;;;;;;5054502;28;20217;-61
2022/10/08 00:48:14;;;;;;;49.63;36.37;;;;;;;;;;5058143;28;20308;-62
2022/10/08 00:50:43;;;;;;;47.40;34.63;;;;;;;;;;5060790;28;20215;-62
2022/10/08 00:53:10;;;;;;;44.20;33.40;;;;;;;;;;5054104;28;20347;-62
2022/10/08 00:55:40;;;;;;;45.37;33.97;;;;;;;;;;5050847;28;20210;-61
2022/10/08 00:58:19;;;;;;;48.87;34.50;;;;;;;;;;5058711;28;20254;-62
2022/10/08 01:00:47;;;;;;;45.47;32.50;;;;;;;;;;5050272;28;20304;-62
2022/10/08 01:03:14;;;;;;;46.13;34.67;;;;;;;;;;5056847;28;20209;-62
2022/10/08 01:05:42;;;;;;;47.77;34.40;;;;;;;;;;5050521;28;20225;-62
2022/10/08 01:08:17;;;;;;;47.60;33.92;;;;;;;;;;5057857;28;20297;-63
2022/10/08 01:10:52;;;;;;;48.47;34.00;;;;;;;;;;5060654;28;20325;-63
2022/10/08 01:13:27;;;;;;;50.03;35.03;;;;;;;;;;5052285;28;20204;-61
2022/10/08 01:15:54;;;;;;;48.47;34.50;;;;;;;;;;5053432;28;20221;-63
2022/10/08 01:18:29;;;;;;;49.47;35.23;;;;;;;;;;5058537;28;20236;-61
2022/10/08 01:20:56;;;;;;;46.70;34.13;;;;;;;;;;5055409;28;20228;-62
2022/10/08 01:23:30;;;;;;;45.05;34.40;;;;;;;;;;5051120;28;20204;-61
2022/10/08 01:26:08;;;;;;;49.97;34.37;;;;;;;;;;5047816;28;20766;-63
2022/10/08 01:28:43;;;;;;;55.13;35.07;;;;;;;;;;5052749;28;20242;-62
2022/10/08 01:31:17;;;;;;;49.30;32.20;;;;;;;;;;5046610;28;21889;-63
2022/10/08 01:33:47;;;;;;;50.97;33.67;;;;;;;;;;5043829;28;20212;-62
2022/10/08 01:36:17;;;;;;;42.77;33.10;;;;;;;;;;5058347;28;20312;-63
2022/10/08 01:38:47;;;;;;;46.70;33.17;;;;;;;;;;5056521;28;20222;-63
2022/10/08 01:41:15;;;;;;;45.07;33.17;;;;;;;;;;5052346;28;20308;-63
2022/10/08 01:43:45;;;;;;;44.50;33.63;;;;;;;;;;5050211;28;21348;-64
2022/10/08 01:46:19;;;;;;;38.63;28.93;;;;;;;;;;5045532;28;20957;-64
2022/10/08 01:48:49;;;;;;;38.20;30.37;;;;;;;;;;5053726;28;20687;-63
2022/10/08 01:51:19;;;;;;;36.03;29.40;;;;;;;;;;5053917;28;20233;-63
2022/10/08 01:53:49;;;;;;;40.10;30.03;;;;;;;;;;5060763;28;20203;-63
2022/10/08 01:56:21;;;;;;;42.10;29.93;;;;;;;;;;5060636;28;20621;-63
2022/10/08 01:59:01;;;;;;;36.50;28.17;;;;;;;;;;5053614;28;22749;-62
2022/10/08 02:01:38;;;;;;;35.43;27.70;;;;;;;;;;5061592;28;20296;-63
2022/10/08 02:06:55;;;;;;;40.97;27.97;;;;;;;;;;5055494;28;20321;-62
2022/10/08 02:09:25;;;;;;;34.17;26.30;;;;;;;;;;5056514;28;20306;-62
2022/10/08 02:11:52;;;;;;;38.03;26.37;;;;;;;;;;5058518;28;20236;-62
2022/10/08 02:14:23;;;;;;;34.20;26.20;;;;;;;;;;5051545;28;20629;-63
2022/10/08 02:16:55;;;;;;;30.17;24.10;;;;;;;;;;5049853;28;21609;-60
2022/10/08 02:19:36;;;;;;;34.00;25.43;;;;;;;;;;5059732;28;20288;-61
2022/10/08 02:22:06;;;;;;;34.07;23.67;;;;;;;;;;5065523;28;20304;-61
2022/10/08 02:24:36;;;;;;;31.57;23.37;;;;;;;;;;5055340;28;20312;-64
2022/10/08 02:27:07;;;;;;;29.50;23.23;;;;;;;;;;5056648;28;20337;-62
2022/10/08 02:29:41;;;;;;;24.80;20.87;;;;;;;;;;5057640;28;20304;-62
2022/10/08 02:32:18;;;;;;;29.10;22.63;;;;;;;;;;5042942;28;20721;-61
2022/10/08 02:34:47;;;;;;;27.37;20.57;;;;;;;;;;5039630;28;20213;-61
2022/10/08 02:37:27;;;;;;;29.77;22.83;;;;;;;;;;5054704;28;20332;-62
2022/10/08 02:39:58;;;;;;;33.30;24.10;;;;;;;;;;5046311;28;20601;-63
2022/10/08 02:42:27;;;;;;;29.13;22.30;;;;;;;;;;5051127;28;20213;-63
2022/10/08 02:44:58;;;;;;;26.57;20.43;;;;;;;;;;5058177;28;20671;-62
2022/10/08 02:47:28;;;;;;;27.53;20.87;;;;;;;;;;5064074;28;20463;-63
2022/10/08 02:49:59;;;;;;;29.87;20.73;;;;;;;;;;5059909;28;20194;-63
2022/10/08 02:52:28;;;;;;;29.80;22.93;;;;;;;;;;5058433;28;20587;-63
2022/10/08 02:54:59;;;;;;;35.73;25.30;;;;;;;;;;5054590;28;20301;-62
2022/10/08 02:57:26;;;;;;;34.80;25.50;;;;;;;;;;5078178;28;20316;-63
2022/10/08 02:59:54;;;;;;;34.07;23.97;;;;;;;;;;5064297;28;20313;-62
2022/10/08 03:02:31;;;;;;;35.60;24.37;;;;;;;;;;5053927;28;20885;-64
2022/10/08 03:05:02;;;;;;;30.93;21.50;;;;;;;;;;5059635;28;20809;-61
2022/10/08 03:07:30;;;;;;;26.13;19.17;;;;;;;;;;5061160;28;20225;-62
2022/10/08 03:09:58;;;;;;;27.00;20.60;;;;;;;;;;5056513;28;20304;-63
2022/10/08 03:12:26;;;;;;;22.93;18.03;;;;;;;;;;5053118;28;20217;-63
2022/10/08 03:14:53;;;;;;;26.60;21.17;;;;;;;;;;5061131;28;20284;-63
2022/10/08 03:17:29;;;;;;;25.13;19.53;;;;;;;;;;5056576;28;20644;-62
2022/10/08 03:19:57;;;;;;;21.80;18.23;;;;;;;;;;5058250;28;20208;-61
2022/10/08 03:22:27;;;;;;;20.33;16.57;;;;;;;;;;5060302;28;20720;-63
2022/10/08 03:24:54;;;;;;;22.37;16.13;;;;;;;;;;5057373;28;20217;-63
2022/10/08 03:27:23;;;;;;;18.00;16.07;;;;;;;;;;5055330;28;20232;-63
2022/10/08 03:29:55;;;;;;;21.67;16.67;;;;;;;;;;5051423;28;20237;-63
2022/10/08 03:32:24;;;;;;;20.60;16.17;;;;;;;;;;5050433;28;20270;-62
2022/10/08 03:34:51;;;;;;;19.93;16.33;;;;;;;;;;5047899;28;20232;-62
2022/10/08 03:37:19;;;;;;;19.87;16.30;;;;;;;;;;5051883;28;20237;-61
2022/10/08 03:39:46;;;;;;;24.27;15.53;;;;;;;;;;5056728;28;20293;-63
2022/10/08 03:42:14;;;;;;;19.77;14.97;;;;;;;;;;5053219;28;20720;-62
2022/10/08 03:44:41;;;;;;;19.90;15.33;;;;;;;;;;5052636;28;20251;-64
2022/10/08 03:47:08;;;;;;;19.97;14.63;;;;;;;;;;5058185;28;20229;-61
2022/10/08 03:49:36;;;;;;;17.13;13.60;;;;;;;;;;5052451;28;20301;-62
2022/10/08 03:52:03;;;;;;;19.83;14.83;;;;;;;;;;5056854;28;20205;-62
2022/10/08 03:54:30;;;;;;;17.60;14.37;;;;;;;;;;5057393;28;20288;-62
2022/10/08 03:56:58;;;;;;;18.80;14.53;;;;;;;;;;5056123;28;20225;-62
2022/10/08 03:59:25;;;;;;;17.63;13.10;;;;;;;;;;5062214;28;20237;-62
2022/10/08 04:01:52;;;;;;;16.97;13.77;;;;;;;;;;5053875;28;20293;-61
2022/10/08 04:04:20;;;;;;;19.73;14.80;;;;;;;;;;5060540;28;20845;-61
2022/10/08 04:06:51;;;;;;;21.90;14.63;;;;;;;;;;5061389;28;20232;-62
2022/10/08 04:09:19;;;;;;;18.97;13.63;;;;;;;;;;5064989;28;20570;-62
2022/10/08 04:11:46;;;;;;;20.83;14.17;;;;;;;;;;5057671;28;20762;-63
2022/10/08 04:14:13;;;;;;;24.43;13.90;;;;;;;;;;5059350;28;20263;-61
2022/10/08 04:16:41;;;;;;;17.40;13.70;;;;;;;;;;5066710;28;20710;-63
2022/10/08 04:19:10;;;;;;;17.97;13.10;;;;;;;;;;5063019;28;20281;-63
2022/10/08 04:21:38;;;;;;;16.13;12.40;;;;;;;;;;5061769;28;20206;-63
2022/10/08 04:24:05;;;;;;;13.83;12.23;;;;;;;;;;5059734;28;20394;-63
2022/10/08 04:26:33;;;;;;;19.87;12.43;;;;;;;;;;5056693;28;20287;-63
2022/10/08 04:29:00;;;;;;;18.77;12.77;;;;;;;;;;5052588;28;20292;-63
2022/10/08 04:31:27;;;;;;;17.13;12.23;;;;;;;;;;5057910;28;20211;-63
2022/10/08 04:33:56;;;;;;;20.97;11.67;;;;;;;;;;5059304;28;20233;-63
2022/10/08 04:36:24;;;;;;;17.07;11.53;;;;;;;;;;5057449;28;20233;-62
2022/10/08 04:38:51;;;;;;;14.83;10.77;;;;;;;;;;5052427;28;20298;-61
2022/10/08 04:41:22;;;;;;;16.80;10.27;;;;;;;;;;5061141;28;20206;-62
2022/10/08 04:43:49;;;;;;;13.03;10.13;;;;;;;;;;5056298;28;20863;-61
2022/10/08 04:46:18;;;;;;;13.13;9.67;;;;;;;;;;5060318;28;20233;-62
2022/10/08 04:48:47;;;;;;;13.90;9.63;;;;;;;;;;5043466;28;20237;-62
2022/10/08 04:51:15;;;;;;;13.33;9.10;;;;;;;;;;5058298;28;20669;-61
2022/10/08 04:53:42;;;;;;;10.63;8.33;;;;;;;;;;5057096;28;20201;-62
2022/10/08 04:56:11;;;;;;;14.00;8.70;;;;;;;;;;5042378;28;20247;-63
2022/10/08 04:58:39;;;;;;;15.37;8.43;;;;;;;;;;5056615;28;20281;-65
2022/10/08 05:01:08;;;;;;;12.63;7.07;;;;;;;;;;5059328;28;20809;-64
2022/10/08 05:03:39;;;;;;;10.37;7.17;;;;;;;;;;5053267;28;20249;-63
2022/10/08 05:06:07;;;;;;;13.50;7.90;;;;;;;;;;5072944;28;20259;-62
2022/10/08 05:08:35;;;;;;;11.43;7.93;;;;;;;;;;5062120;28;20205;-62
2022/10/08 05:11:03;;;;;;;12.63;8.25;;;;;;;;;;5059246;28;20198;-62
2022/10/08 05:13:30;;;;;;;13.87;8.10;;;;;;;;;;5079199;28;20285;-64
2022/10/08 05:16:02;;;;;;;12.07;8.50;;;;;;;;;;5055495;28;20221;-61
2022/10/08 05:18:31;;;;;;;13.10;8.00;;;;;;;;;;5056966;28;20400;-60
2022/10/08 05:21:01;;;;;;;12.03;8.23;;;;;;;;;;5049250;28;21763;-61
2022/10/08 05:23:29;;;;;;;11.13;7.63;;;;;;;;;;5059121;28;20305;-61
2022/10/08 05:25:56;;;;;;;12.37;8.30;;;;;;;;;;5065030;28;20239;-63
2022/10/08 05:28:23;;;;;;;10.40;8.20;;;;;;;;;;5068621;28;20733;-61
2022/10/08 05:30:50;;;;;;;10.77;8.63;;;;;;;;;;5065368;28;20350;-62
2022/10/08 05:33:18;;;;;;;15.07;7.97;;;;;;;;;;5062477;28;20208;-61
2022/10/08 05:35:45;;;;;;;12.87;8.07;;;;;;;;;;5061453;28;20340;-62
2022/10/08 05:38:12;;;;;;;9.30;7.80;;;;;;;;;;5062478;28;20224;-63
2022/10/08 05:40:40;;;;;;;10.47;7.03;;;;;;;;;;5067225;28;20289;-64
2022/10/08 05:43:07;;;;;;;12.67;7.07;;;;;;;;;;5070854;28;20288;-63
2022/10/08 05:45:34;;;;;;;10.43;7.53;;;;;;;;;;5052944;28;20228;-62
2022/10/08 05:48:01;;;;;;;12.27;7.37;;;;;;;;;;5061130;28;20247;-62
2022/10/08 05:50:29;;;;;;;10.67;7.10;;;;;;;;;;5058605;28;20202;-64
2022/10/08 05:52:56;;;;;;;16.33;7.63;;;;;;;;;;5054500;28;20202;-63
2022/10/08 05:55:23;;;;;;;11.77;7.40;;;;;;;;;;5054328;28;20248;-63
2022/10/08 05:57:51;;;;;;;17.07;7.70;;;;;;;;;;5045736;28;20269;-64
2022/10/08 06:00:18;;;;;;;11.47;7.63;;;;;;;;;;5046471;28;20214;-63
2022/10/08 06:02:48;;;;;;;16.87;8.10;;;;;;;;;;5070949;28;20221;-64
2022/10/08 06:05:16;;;;;;;18.03;10.20;;;;;;;;;;5064254;28;20824;-63
2022/10/08 06:07:44;;;;;;;35.97;20.30;;;;;;;;;;5061711;28;20316;-64
2022/10/08 06:10:11;;;;;;;23.47;17.07;;;;;;;;;;5052854;28;20198;-64
2022/10/08 06:12:38;;;;;;;19.02;11.15;;;;;;;;;;5057649;28;20789;-63
2022/10/08 06:15:06;;;;;;;16.07;9.93;;;;;;;;;;5059830;28;20610;-63
2022/10/08 06:17:33;;;;;;;13.50;7.57;;;;;;;;;;5057343;28;20309;-63
2022/10/08 06:20:01;;;;;;;14.15;7.40;;;;;;;;;;5073881;28;20198;-63
2022/10/08 06:22:28;;;;;;;11.95;7.15;;;;;;;;;;5059758;28;20271;-63
2022/10/08 06:24:55;;;;;;;9.50;6.97;;;;;;;;;;5058826;28;20293;-63
2022/10/08 06:27:23;;;;;;;15.00;8.23;;;;;;;;;;5069351;28;20232;-63
2022/10/08 06:29:50;;;;;;;10.60;7.90;;;;;;;;;;5058322;28;20211;-63
2022/10/08 06:32:17;;;;;;;12.60;7.73;;;;;;;;;;5058110;28;20284;-62
2022/10/08 06:34:45;;;;;;;9.60;7.18;;;;;;;;;;5051505;28;20297;-62
2022/10/08 06:37:12;;;;;;;10.45;7.43;;;;;;;;;;5054838;28;21317;-62
2022/10/08 06:39:39;;;;;;;9.73;7.38;;;;;;;;;;5058163;28;21181;-64
2022/10/08 06:42:13;;;;;;;11.23;6.18;;;;;;;;;;5047232;28;20230;-63
2022/10/08 06:44:41;;;;;;;11.60;6.68;;;;;;;;;;5057905;28;21369;-63
2022/10/08 06:47:08;;;;;;;11.18;5.82;;;;;;;;;;5065930;28;20237;-62
2022/10/08 06:49:35;;;;;;;8.48;6.43;;;;;;;;;;5069805;28;20248;-65
2022/10/08 06:52:03;;;;;;;9.70;5.95;;;;;;;;;;5051310;28;20255;-63
2022/10/08 06:54:30;;;;;;;6.80;5.07;;;;;;;;;;5070626;28;20206;-62
2022/10/08 06:56:57;;;;;;;10.82;6.03;;;;;;;;;;5053801;28;20320;-62
2022/10/08 06:59:25;;;;;;;9.80;6.05;;;;;;;;;;5044326;28;20204;-63
2022/10/08 07:01:52;;;;;;;6.32;5.50;;;;;;;;;;5058868;28;20212;-63
2022/10/08 07:04:19;;;;;;;11.35;5.40;;;;;;;;;;5056288;28;20670;-63
2022/10/08 07:06:47;;;;;;;8.48;5.25;;;;;;;;;;5066628;28;20229;-63
2022/10/08 07:09:14;;;;;;;9.77;5.05;;;;;;;;;;5059152;28;20301;-62
2022/10/08 07:11:41;;;;;;;6.55;5.35;;;;;;;;;;5065280;28;20723;-63
2022/10/08 07:14:09;;;;;;;6.80;4.82;;;;;;;;;;5049756;28;20216;-62
2022/10/08 07:16:36;;;;;;;7.72;4.93;;;;;;;;;;5054880;28;20316;-63
2022/10/08 07:19:03;;;;;;;12.45;7.70;;;;;;;;;;5053818;28;20225;-63
2022/10/08 07:21:31;;;;;;;12.32;5.53;;;;;;;;;;5058737;28;20342;-63
2022/10/08 07:23:59;;;;;;;10.70;6.93;;;;;;;;;;5058496;28;20204;-63
2022/10/08 07:26:29;;;;;;;9.07;5.32;;;;;;;;;;5058190;28;20697;-62
2022/10/08 07:28:58;;;;;;;13.32;6.40;;;;;;;;;;5052584;28;20197;-62
2022/10/08 07:31:26;;;;;;;12.30;5.20;;;;;;;;;;5053083;28;20212;-62
2022/10/08 07:33:55;;;;;;;11.45;5.78;;;;;;;;;;5056293;28;20296;-62
2022/10/08 07:36:23;;;;;;;12.57;5.25;;;;;;;;;;5071540;28;20446;-62
2022/10/08 07:39:00;;;;;;;10.93;5.85;;;;;;;;;;5061321;28;20252;-62
2022/10/08 07:41:29;;;;;;;10.02;5.40;;;;;;;;;;5054745;28;20215;-62
2022/10/08 07:43:58;;;;;;;7.75;4.82;;;;;;;;;;5062557;28;20332;-63
2022/10/08 07:46:26;;;;;;;13.05;5.18;;;;;;;;;;5055649;28;20235;-63
2022/10/08 07:48:55;;;;;;;11.63;5.82;;;;;;;;;;5049413;28;20237;-63
2022/10/08 07:51:23;;;;;;;8.65;5.57;;;;;;;;;;5058063;28;20205;-62
2022/10/08 07:53:50;;;;;;;9.45;5.85;;;;;;;;;;5051686;28;20208;-63
2022/10/08 07:56:21;;;;;;;8.48;5.38;;;;;;;;;;5053526;28;20302;-62
2022/10/08 07:58:48;;;;;;;10.27;6.07;;;;;;;;;;5052682;28;20224;-63
2022/10/08 08:01:21;;;;;;;11.35;5.70;;;;;;;;;;5053551;28;20233;-62
2022/10/08 08:03:52;;;;;;;11.85;5.07;;;;;;;;;;5045519;28;20739;-62
2022/10/08 08:06:19;;;;;;;11.93;6.43;;;;;;;;;;5052473;28;20241;-62
2022/10/08 08:08:47;;;;;;;13.20;5.57;;;;;;;;;;5035766;28;20290;-62
2022/10/08 08:11:15;;;;;;;7.72;5.82;;;;;;;;;;5038058;28;20206;-62
2022/10/08 08:13:43;;;;;;;12.55;7.35;;;;;;;;;;5040209;28;20320;-63
2022/10/08 08:16:15;;;;;;;8.50;5.80;;;;;;;;;;5036260;28;20218;-62
2022/10/08 08:18:43;;;;;;;11.60;6.15;;;;;;;;;;5042305;28;20202;-63
2022/10/08 08:21:12;;;;;;;11.15;5.72;;;;;;;;;;5048400;28;20313;-63
2022/10/08 08:23:41;;;;;;;12.55;6.05;;;;;;;;;;5050936;28;20209;-62
2022/10/08 08:26:10;;;;;;;9.40;5.70;;;;;;;;;;5040750;28;20234;-63
2022/10/08 08:28:37;;;;;;;11.85;5.72;;;;;;;;;;5044229;28;20282;-63
2022/10/08 08:31:09;;;;;;;12.57;6.78;;;;;;;;;;5033971;28;20214;-63
2022/10/08 08:33:36;;;;;;;11.73;6.20;;;;;;;;;;5043601;28;20220;-62
2022/10/08 08:36:04;;;;;;;11.02;5.70;;;;;;;;;;5042655;28;20226;-62
2022/10/08 08:38:31;;;;;;;7.95;5.45;;;;;;;;;;5043333;28;20209;-62
2022/10/08 08:41:05;;;;;;;10.57;7.00;;;;;;;;;;5048326;28;20307;-61
2022/10/08 08:43:39;;;;;;;15.10;8.38;;;;;;;;;;5045061;28;20213;-61
2022/10/08 08:46:06;;;;;;;14.15;7.38;;;;;;;;;;5038855;28;20240;-61
2022/10/08 08:48:36;;;;;;;11.45;6.97;;;;;;;;;;5032838;28;20209;-63
2022/10/08 08:51:04;;;;;;;9.43;6.15;;;;;;;;;;5039387;28;20730;-64
2022/10/08 08:53:31;;;;;;;9.63;6.35;;;;;;;;;;5034398;28;20206;-63
2022/10/08 08:56:02;;;;;;;8.05;5.78;;;;;;;;;;5035947;28;20308;-61
2022/10/08 08:58:37;;;;;;;10.75;5.97;;;;;;;;;;5053117;28;20194;-61
2022/10/08 09:01:08;;;;;;;13.95;5.82;;;;;;;;;;5052984;28;20212;-61
2022/10/08 09:03:40;;;;;;;10.77;5.57;;;;;;;;;;5046172;28;21464;-61
2022/10/08 09:06:09;;;;;;;16.65;5.55;;;;;;;;;;5034952;28;20230;-60
2022/10/08 09:08:56;;;;;;;6.10;4.97;;;;;;;;;;5051162;28;20290;-61
2022/10/08 09:11:24;;;;;;;11.43;6.32;;;;;;;;;;5036428;28;20202;-62
2022/10/08 09:13:56;;;;;;;8.50;5.68;;;;;;;;;;5050227;28;20218;-62
2022/10/08 09:16:26;;;;;;;12.30;7.03;;;;;;;;;;5050415;28;21929;-63
2022/10/08 09:18:54;;;;;;;8.90;5.35;;;;;;;;;;5039114;28;20202;-62
2022/10/08 09:21:32;;;;;;;5.60;4.95;;;;;;;;;;5044460;28;20335;-60
2022/10/08 09:24:00;;;;;;;8.48;5.22;;;;;;;;;;5052808;28;20959;-63
2022/10/08 09:26:32;;;;;;;8.15;5.00;;;;;;;;;;5064952;28;20324;-63
2022/10/08 09:29:00;;;;;;;8.73;5.70;;;;;;;;;;5056114;28;20284;-63
2022/10/08 09:31:40;;;;;;;7.60;4.85;;;;;;;;;;5055461;28;20210;-62
2022/10/08 09:34:19;;;;;;;7.20;5.15;;;;;;;;;;5055423;28;20203;-63
2022/10/08 09:37:04;;;;;;;7.28;5.10;;;;;;;;;;5055446;28;20233;-63
2022/10/08 09:39:32;;;;;;;6.45;5.07;;;;;;;;;;5054046;28;20229;-62
2022/10/08 09:42:06;;;;;;;5.25;4.75;;;;;;;;;;5057264;28;20216;-63
2022/10/08 09:44:41;;;;;;;13.93;10.07;;;;;;;;;;5051974;28;20224;-62
2022/10/08 09:47:10;;;;;;;10.48;6.90;;;;;;;;;;5049584;28;20320;-64
2022/10/08 09:49:38;;;;;;;12.88;7.80;;;;;;;;;;5056683;28;20292;-63
2022/10/08 09:52:14;;;;;;;12.13;8.35;;;;;;;;;;5053796;28;20208;-62
2022/10/08 09:54:52;;;;;;;11.90;7.53;;;;;;;;;;5049175;28;20201;-62
2022/10/08 09:57:20;;;;;;;10.30;7.05;;;;;;;;;;5067640;28;20311;-62
2022/10/08 09:59:58;;;;;;;13.55;7.32;;;;;;;;;;5048644;28;20279;-64
2022/10/08 10:02:30;;;;;;;16.92;7.65;;;;;;;;;;5054508;28;20201;-63
2022/10/08 10:04:59;;;;;;;10.25;6.35;;;;;;;;;;5048241;28;20232;-62
2022/10/08 10:07:37;;;;;;;11.05;7.18;;;;;;;;;;5042100;28;20248;-63
2022/10/08 10:10:09;;;;;;;12.15;7.20;;;;;;;;;;5043704;28;20206;-63
2022/10/08 10:12:39;;;;;;;10.30;6.78;;;;;;;;;;5041703;28;20210;-63
2022/10/08 10:15:12;;;;;;;15.85;7.53;;;;;;;;;;5049109;28;20289;-63
2022/10/08 10:17:43;;;;;;;11.48;7.68;;;;;;;;;;5051668;28;20299;-63
2022/10/08 10:20:22;;;;;;;10.85;7.53;;;;;;;;;;5044658;28;20210;-63
2022/10/08 10:22:50;;;;;;;16.00;7.32;;;;;;;;;;5057169;28;20220;-63
2022/10/08 10:25:22;;;;;;;11.18;7.20;;;;;;;;;;5047010;28;20217;-62
2022/10/08 10:27:59;;;;;;;19.20;11.63;;;;;;;;;;5043611;28;20241;-63
2022/10/08 10:30:27;;;;;;;21.67;12.60;;;;;;;;;;5043239;28;20306;-62
2022/10/08 10:32:57;;;;;;;15.18;8.80;;;;;;;;;;5050351;28;20318;-62
2022/10/08 10:35:26;;;;;;;15.73;9.27;;;;;;;;;;5060458;28;20202;-63
2022/10/08 10:37:56;;;;;;;11.77;6.07;;;;;;;;;;5048807;28;20233;-63
2022/10/08 10:40:29;;;;;;;10.98;6.75;;;;;;;;;;5043595;28;20570;-63
2022/10/08 10:43:02;;;;;;;11.30;6.10;;;;;;;;;;5047936;28;20201;-63
2022/10/08 10:45:34;;;;;;;8.20;5.40;;;;;;;;;;5043531;28;20202;-63
2022/10/08 10:48:02;;;;;;;7.63;5.45;;;;;;;;;;5042705;28;20312;-62
2022/10/08 10:50:37;;;;;;;7.25;5.43;;;;;;;;;;5036138;28;20202;-63
2022/10/08 10:53:10;;;;;;;9.95;5.53;;;;;;;;;;5041845;28;20240;-62
2022/10/08 10:55:40;;;;;;;12.35;5.45;;;;;;;;;;5056393;28;20228;-62
2022/10/08 10:58:13;;;;;;;6.47;4.85;;;;;;;;;;5050684;28;20874;-61
2022/10/08 11:00:41;;;;;;;9.85;5.55;;;;;;;;;;5037912;28;20212;-62
2022/10/08 11:03:14;;;;;;;8.50;5.13;;;;;;;;;;5043610;28;20214;-61
2022/10/08 11:05:42;;;;;;;17.10;5.18;;;;;;;;;;5045888;28;20209;-62
2022/10/08 11:08:29;;;;;;;7.20;5.18;;;;;;;;;;5044315;28;20259;-64
2022/10/08 11:11:17;;;;;;;13.23;5.25;;;;;;;;;;5044814;28;20194;-62
2022/10/08 11:14:00;;;;;;;8.85;5.63;;;;;;;;;;5057092;28;20205;-63
2022/10/08 11:16:27;;;;;;;8.60;5.88;;;;;;;;;;5053686;28;20233;-63
2022/10/08 11:18:58;;;;;;;7.85;5.22;;;;;;;;;;5044192;28;20293;-64
2022/10/08 11:21:38;;;;;;;8.82;4.97;;;;;;;;;;5050504;28;20206;-62
2022/10/08 11:24:32;;;;;;;9.82;4.70;;;;;;;;;;5042957;28;20232;-62
2022/10/08 11:27:02;;;;;;;8.55;4.47;;;;;;;;;;5044111;28;20311;-62
2022/10/08 11:29:42;;;;;;;7.72;5.00;;;;;;;;;;5050444;28;20206;-64
2022/10/08 11:32:12;;;;;;;8.63;4.38;;;;;;;;;;5041663;28;20233;-63
2022/10/08 11:34:42;;;;;;;6.18;4.65;;;;;;;;;;5044570;28;20206;-63
2022/10/08 11:37:28;;;;;;;7.95;4.05;;;;;;;;;;5038801;28;20240;-63
2022/10/08 11:40:15;;;;;;;7.35;4.82;;;;;;;;;;5050051;28;20215;-63
2022/10/08 11:42:58;;;;;;;7.18;4.13;;;;;;;;;;5053811;28;20680;-62
2022/10/08 11:45:25;;;;;;;8.65;4.45;;;;;;;;;;5038975;28;20205;-63
2022/10/08 11:47:54;;;;;;;7.88;4.28;;;;;;;;;;5045902;28;20230;-62
2022/10/08 11:50:25;;;;;;;6.20;3.40;;;;;;;;;;5037649;28;20210;-62
2022/10/08 11:52:55;;;;;;;8.77;4.53;;;;;;;;;;5040942;28;20201;-62
2022/10/08 11:55:28;;;;;;;15.52;8.95;;;;;;;;;;5049968;28;20635;-61
2022/10/08 11:58:03;;;;;;;9.65;4.43;;;;;;;;;;5037774;28;20299;-62
2022/10/08 12:00:42;;;;;;;8.25;3.80;;;;;;;;;;5048126;28;20259;-62
2022/10/08 12:03:48;;;;;;;8.23;4.80;;;;;;;;;;5030754;28;20209;-61
2022/10/08 12:06:18;;;;;;;5.43;3.42;;;;;;;;;;4948458;28;20538;-62
2022/10/08 12:08:52;;;;;;;3.80;3.13;;;;;;;;;;4945572;28;20692;-61
2022/10/08 12:11:29;;;;;;;6.03;3.25;;;;;;;;;;5017996;28;20212;-62
2022/10/08 12:14:15;;;;;;;5.57;3.28;;;;;;;;;;5035048;28;20206;-61
2022/10/08 12:17:07;;;;;;;5.47;3.40;;;;;;;;;;5046343;28;20312;-63
2022/10/08 12:19:34;;;;;;;6.30;3.20;;;;;;;;;;5050259;28;20333;-64
2022/10/08 12:22:02;;;;;;;7.75;3.53;;;;;;;;;;5055404;28;20202;-61
2022/10/08 12:24:39;;;;;;;6.40;3.13;;;;;;;;;;5062202;28;20288;-62
2022/10/08 12:27:15;;;;;;;5.57;3.30;;;;;;;;;;5047821;28;20280;-63
2022/10/08 12:29:54;;;;;;;8.77;4.53;;;;;;;;;;5044419;28;20349;-62
2022/10/08 12:32:45;;;;;;;6.20;3.65;;;;;;;;;;5048381;28;20212;-62
2022/10/08 12:35:24;;;;;;;6.22;3.38;;;;;;;;;;5040767;28;20288;-63
2022/10/08 12:38:18;;;;;;;6.63;3.70;;;;;;;;;;5051433;28;20256;-63
2022/10/08 12:41:02;;;;;;;14.07;6.13;;;;;;;;;;5038239;28;20300;-61
2022/10/08 12:43:30;;;;;;;9.45;4.00;;;;;;;;;;5040946;28;20210;-63
2022/10/08 12:46:06;;;;;;;8.57;4.82;;;;;;;;;;5025556;28;21127;-63
2022/10/08 12:48:36;;;;;;;6.85;2.97;;;;;;;;;;5029159;28;20228;-63
2022/10/08 12:51:33;;;;;;;5.07;2.78;;;;;;;;;;5026137;28;21052;-62
2022/10/08 12:54:02;;;;;;;6.03;3.00;;;;;;;;;;4941344;28;20213;-61
2022/10/08 12:56:30;;;;;;;5.85;2.75;;;;;;;;;;5024985;28;20228;-64
2022/10/08 12:59:01;;;;;;;6.13;2.67;;;;;;;;;;5030329;28;20217;-62
2022/10/08 13:01:28;;;;;;;6.90;2.65;;;;;;;;;;5035841;28;20209;-61
2022/10/08 13:04:31;;;;;;;3.65;2.50;;;;;;;;;;5043309;28;20224;-61
2022/10/08 13:06:58;;;;;;;7.28;2.33;;;;;;;;;;4986408;28;20274;-61
2022/10/08 13:09:33;;;;;;;3.92;2.22;;;;;;;;;;5048349;28;20317;-61
2022/10/08 13:12:03;;;;;;;6.88;2.45;;;;;;;;;;5046452;28;20229;-61
2022/10/08 13:14:32;;;;;;;6.07;2.55;;;;;;;;;;5042844;28;20610;-62
2022/10/08 13:16:59;;;;;;;6.07;2.40;;;;;;;;;;5048610;28;21004;-61
2022/10/08 13:19:29;;;;;;;5.47;2.65;;;;;;;;;;5044848;28;20281;-63
2022/10/08 13:21:58;;;;;;;5.25;2.35;;;;;;;;;;5042747;28;20229;-62
2022/10/08 13:24:25;;;;;;;6.38;2.60;;;;;;;;;;5044977;28;20292;-64
2022/10/08 13:26:56;;;;;;;7.28;2.58;;;;;;;;;;5050810;28;20768;-64
2022/10/08 13:29:25;;;;;;;4.28;2.20;;;;;;;;;;5036994;28;20210;-62
2022/10/08 13:31:57;;;;;;;4.90;2.15;;;;;;;;;;5037348;28;20210;-63
2022/10/08 13:34:26;;;;;;;4.75;2.42;;;;;;;;;;5047753;28;20677;-62
2022/10/08 13:36:56;;;;;;;7.28;2.80;;;;;;;;;;5044013;28;20280;-64
2022/10/08 13:39:46;;;;;;;6.90;2.65;;;;;;;;;;5042449;28;20198;-62
2022/10/08 13:42:18;;;;;;;6.05;2.88;;;;;;;;;;5034117;28;20218;-62
2022/10/08 13:44:45;;;;;;;5.63;2.70;;;;;;;;;;5042613;28;20205;-62
2022/10/08 13:47:17;;;;;;;5.60;2.70;;;;;;;;;;5056383;28;20732;-64
2022/10/08 13:49:45;;;;;;;5.32;2.55;;;;;;;;;;5043174;28;20296;-62
2022/10/08 13:52:20;;;;;;;5.57;2.95;;;;;;;;;;5049118;28;20210;-61
2022/10/08 13:54:48;;;;;;;7.18;3.60;;;;;;;;;;5037431;28;20220;-61
2022/10/08 13:57:15;;;;;;;6.35;2.95;;;;;;;;;;5039861;28;20314;-62
2022/10/08 13:59:43;;;;;;;10.77;3.33;;;;;;;;;;5038704;28;20214;-61
2022/10/08 14:02:12;;;;;;;10.75;4.75;;;;;;;;;;5045131;28;20202;-61
2022/10/08 14:04:40;;;;;;;7.72;3.03;;;;;;;;;;5058412;28;20557;-63
2022/10/08 14:07:17;;;;;;;6.38;2.70;;;;;;;;;;5050312;28;20234;-62
2022/10/08 14:09:44;;;;;;;9.90;2.63;;;;;;;;;;5048606;28;20209;-62
2022/10/08 14:12:12;;;;;;;8.35;2.70;;;;;;;;;;5042124;28;20209;-61
2022/10/08 14:14:39;;;;;;;6.18;2.53;;;;;;;;;;5045331;28;20214;-63
2022/10/08 14:17:07;;;;;;;10.18;3.08;;;;;;;;;;5049609;28;20226;-63
2022/10/08 14:19:34;;;;;;;8.98;2.72;;;;;;;;;;5039794;28;20212;-62
2022/10/08 14:22:03;;;;;;;9.13;2.58;;;;;;;;;;5039315;28;20197;-61
2022/10/08 14:24:30;;;;;;;6.47;2.60;;;;;;;;;;5034663;28;20198;-63
2022/10/08 14:27:00;;;;;;;6.95;2.67;;;;;;;;;;5042102;28;21001;-61
2022/10/08 14:29:34;;;;;;;6.40;2.20;;;;;;;;;;5035192;28;20220;-62
2022/10/08 14:32:02;;;;;;;6.00;2.35;;;;;;;;;;5023332;28;20284;-61
2022/10/08 14:34:29;;;;;;;6.55;2.42;;;;;;;;;;5019112;28;20292;-63
2022/10/08 14:36:57;;;;;;;7.22;2.50;;;;;;;;;;5033581;28;20359;-61
2022/10/08 14:39:25;;;;;;;6.68;2.70;;;;;;;;;;5030172;28;20213;-63
2022/10/08 14:41:52;;;;;;;5.68;2.22;;;;;;;;;;5024037;28;20201;-61
2022/10/08 14:44:23;;;;;;;4.63;2.38;;;;;;;;;;5029731;28;20711;-61
2022/10/08 14:46:51;;;;;;;6.22;2.22;;;;;;;;;;5035250;28;20355;-63
2022/10/08 14:49:19;;;;;;;7.68;2.15;;;;;;;;;;5040312;28;20232;-63
2022/10/08 14:51:48;;;;;;;4.60;2.42;;;;;;;;;;5032165;28;20217;-62
2022/10/08 14:54:16;;;;;;;6.05;1.98;;;;;;;;;;5035635;28;20213;-61